Terminal Aerodrome Forecast
Issued by NWS Omaha/Valley, NE

Home | Current Version | Previous Version | Text Only | Print | Product List | Glossary On
Versions: 1 2 3 4 5 6 7 8 9 10 11 12 13 14 15 16 17 18 19 20 21 22 23 24 25 26 27 28 29 30 31 32 33 34 35 36 37 38 39 40 41 42 43 44 45 46 47 48 49
000
FTUS43 KOAX 262309 AAB
TAFOMA
TAF AMD
KOMA 262309Z 2623/2718 35012KT P6SM SCT025 BKN035
      TEMPO 2623/2702 5SM -SN BKN025
     FM270300 34009KT P6SM FEW025
     FM270800 34006KT P6SM SKC
     FM271400 VRB04KT P6SM SKC=

USA.gov is the U.S. government's official web portal to all federal, state and local government web resources and services.